Time;durP1;ratioP1;P1;durP2;ratioP2;P2;SDS_P1;SDS_P2;PMS_P1;PMS_P2;Temp;Humidity;BMP_temperature;BMP_pressure;BME280_temperature;BME280_humidity;BME280_pressure;Samples;Min_cycle;Max_cycle;Signal;HPM_P1;HPM_P2
2023/03/09 00:00:08;;;;;;;7.80;7.60;;;7.50;99.90;;;;;;5148340;27;20254;-81
2023/03/09 00:02:36;;;;;;;7.80;7.60;;;7.50;99.90;;;;;;5146359;27;20220;-81
2023/03/09 00:05:05;;;;;;;7.80;7.60;;;7.50;99.90;;;;;;5147915;27;20236;-80
2023/03/09 00:07:34;;;;;;;7.80;7.60;;;7.50;99.90;;;;;;5147533;27;20232;-81
2023/03/09 00:10:12;;;;;;;8.00;7.80;;;7.60;99.90;;;;;;5139073;27;20264;-81
2023/03/09 00:12:43;;;;;;;7.90;7.70;;;7.60;99.90;;;;;;5130518;27;20221;-80
2023/03/09 00:15:12;;;;;;;7.70;7.50;;;7.60;99.90;;;;;;5126436;27;20229;-81
2023/03/09 00:17:40;;;;;;;7.87;7.67;;;7.60;99.90;;;;;;5126569;27;20229;-80
2023/03/09 00:20:18;;;;;;;7.70;7.50;;;7.60;99.90;;;;;;5130350;27;20243;-81
2023/03/09 00:22:50;;;;;;;8.00;7.80;;;7.60;99.90;;;;;;5132207;27;20220;-81
2023/03/09 00:25:21;;;;;;;7.93;7.73;;;7.70;99.90;;;;;;5140728;27;20240;-80
2023/03/09 00:27:49;;;;;;;7.77;7.57;;;7.70;99.90;;;;;;5142200;27;20217;-79
2023/03/09 00:30:18;;;;;;;7.67;7.47;;;7.80;99.90;;;;;;5137169;27;20221;-80
2023/03/09 00:32:46;;;;;;;7.60;7.40;;;7.80;99.90;;;;;;5132066;27;20229;-81
2023/03/09 00:35:16;;;;;;;7.50;7.30;;;7.80;99.90;;;;;;5130467;27;20236;-81
2023/03/09 00:37:46;;;;;;;7.73;7.53;;;7.90;99.90;;;;;;5129402;27;20294;-81
2023/03/09 00:40:15;;;;;;;7.67;7.47;;;7.90;99.90;;;;;;5131449;27;20230;-81
2023/03/09 00:42:47;;;;;;;7.50;7.30;;;8.00;99.90;;;;;;5138166;27;20287;-81
2023/03/09 00:45:15;;;;;;;7.40;7.20;;;8.00;99.90;;;;;;5145329;27;20221;-80
2023/03/09 00:47:43;;;;;;;7.50;7.30;;;8.00;99.90;;;;;;5128287;27;20224;-81
2023/03/09 00:50:12;;;;;;;7.60;7.40;;;8.10;99.90;;;;;;5128134;27;20312;-81
2023/03/09 00:52:42;;;;;;;7.50;7.30;;;8.00;99.90;;;;;;5131875;28;20226;-80
2023/03/09 00:55:11;;;;;;;7.53;7.33;;;8.10;99.90;;;;;;5128967;27;20308;-81
2023/03/09 00:57:40;;;;;;;7.60;7.40;;;8.10;99.90;;;;;;5128308;27;20324;-81
2023/03/09 01:00:20;;;;;;;7.70;7.50;;;8.10;99.90;;;;;;5128117;27;20290;-80
2023/03/09 01:02:48;;;;;;;7.60;7.40;;;8.10;99.90;;;;;;5128593;27;20324;-81
2023/03/09 01:05:17;;;;;;;7.40;7.20;;;8.10;99.90;;;;;;5128757;27;20232;-81
2023/03/09 01:07:47;;;;;;;7.60;7.40;;;8.10;99.90;;;;;;5128578;27;20229;-81
2023/03/09 01:10:16;;;;;;;7.43;7.23;;;8.00;99.90;;;;;;5134405;27;20304;-81
2023/03/09 01:12:46;;;;;;;7.80;7.60;;;8.00;99.90;;;;;;5127078;27;20231;-81
2023/03/09 01:15:24;;;;;;;7.87;7.67;;;8.00;99.90;;;;;;5127468;27;20221;-80
2023/03/09 01:17:53;;;;;;;7.80;7.60;;;8.10;99.90;;;;;;5127370;27;20290;-81
2023/03/09 01:20:23;;;;;;;7.60;7.40;;;8.10;99.90;;;;;;5127846;27;20237;-81
2023/03/09 01:22:52;;;;;;;7.70;7.50;;;8.20;99.90;;;;;;5133613;27;20246;-81
2023/03/09 01:25:22;;;;;;;7.70;7.50;;;8.20;99.90;;;;;;5129644;27;20253;-81
2023/03/09 01:27:52;;;;;;;7.80;7.60;;;8.20;99.90;;;;;;5128741;27;20300;-81
2023/03/09 01:30:29;;;;;;;7.60;7.40;;;8.20;99.90;;;;;;5129278;27;20268;-80
2023/03/09 01:32:59;;;;;;;7.50;7.30;;;8.30;99.90;;;;;;5127577;27;20229;-80
2023/03/09 01:35:28;;;;;;;7.70;7.50;;;8.30;99.90;;;;;;5135216;27;20208;-81
2023/03/09 01:37:59;;;;;;;7.67;7.47;;;8.30;99.90;;;;;;5136294;27;20302;-81
2023/03/09 01:40:28;;;;;;;7.67;7.47;;;8.40;99.90;;;;;;5130418;27;20243;-80
2023/03/09 01:42:57;;;;;;;7.60;7.40;;;8.50;99.90;;;;;;5129338;27;20286;-80
2023/03/09 01:46:20;;;;;;;7.57;7.37;;;8.50;99.90;;;;;;5129565;27;20243;-82
2023/03/09 01:48:57;;;;;;;7.70;7.50;;;8.50;99.90;;;;;;5129178;27;20239;-80
2023/03/09 01:51:36;;;;;;;7.60;7.40;;;8.50;99.90;;;;;;5128170;28;20236;-81
2023/03/09 01:54:11;;;;;;;7.30;7.10;;;8.60;99.90;;;;;;5130456;27;20251;-80
2023/03/09 01:56:43;;;;;;;7.30;7.10;;;8.70;99.90;;;;;;5129567;27;20216;-81
2023/03/09 01:59:12;;;;;;;7.40;7.20;;;8.90;99.90;;;;;;5128340;27;20284;-80
2023/03/09 02:01:44;;;;;;;7.50;7.30;;;8.90;99.90;;;;;;5128065;27;20240;-80
2023/03/09 02:04:22;;;;;;;7.70;7.50;;;9.00;99.90;;;;;;5128047;27;20216;-81
2023/03/09 02:06:51;;;;;;;7.70;7.50;;;9.00;99.90;;;;;;5129745;27;20280;-81
2023/03/09 02:09:29;;;;;;;7.93;7.73;;;9.10;99.90;;;;;;5133172;27;20228;-81
2023/03/09 02:11:59;;;;;;;8.00;7.80;;;9.10;99.90;;;;;;5131920;27;20275;-81
2023/03/09 02:14:28;;;;;;;8.00;7.80;;;9.10;99.90;;;;;;5135361;27;20248;-80
2023/03/09 02:16:58;;;;;;;7.80;7.60;;;9.10;99.90;;;;;;5135867;27;20242;-79
2023/03/09 02:19:46;;;;;;;7.60;7.40;;;9.10;99.90;;;;;;5137081;27;20236;-79
2023/03/09 02:22:14;;;;;;;8.40;8.20;;;9.10;99.90;;;;;;5134038;27;20233;-79
2023/03/09 02:24:54;;;;;;;8.20;8.00;;;9.10;99.90;;;;;;5128955;27;20292;-80
2023/03/09 02:27:31;;;;;;;8.10;7.90;;;9.10;99.90;;;;;;5128575;27;20221;-80
2023/03/09 02:30:00;;;;;;;8.17;7.97;;;9.10;99.90;;;;;;5128884;27;20280;-79
2023/03/09 02:32:30;;;;;;;8.40;8.20;;;9.10;99.90;;;;;;5127976;27;20236;-79
2023/03/09 02:34:59;;;;;;;8.30;8.10;;;9.10;99.90;;;;;;5126843;27;20323;-80
2023/03/09 02:37:31;;;;;;;8.50;8.30;;;9.10;99.90;;;;;;5126476;27;20319;-80
2023/03/09 02:40:07;;;;;;;8.23;8.03;;;9.10;99.90;;;;;;5127102;27;20243;-80
2023/03/09 02:42:41;;;;;;;8.40;8.20;;;9.10;99.90;;;;;;5126795;27;20296;-79
2023/03/09 02:45:14;;;;;;;7.73;7.53;;;9.10;99.90;;;;;;5126092;27;20241;-80
2023/03/09 02:47:46;;;;;;;8.20;8.00;;;9.10;99.90;;;;;;5126409;28;20243;-81
2023/03/09 02:50:14;;;;;;;8.20;8.00;;;9.10;99.90;;;;;;5126197;27;20332;-79
2023/03/09 02:52:43;;;;;;;8.10;7.90;;;9.10;99.90;;;;;;5126380;27;20244;-79
2023/03/09 02:55:12;;;;;;;8.00;7.80;;;9.10;99.90;;;;;;5126269;27;20231;-79
2023/03/09 02:57:43;;;;;;;7.83;7.63;;;9.10;99.90;;;;;;5126573;27;20228;-80
2023/03/09 03:00:21;;;;;;;7.80;7.60;;;9.10;99.90;;;;;;5126814;27;20319;-79
2023/03/09 03:02:50;;;;;;;7.90;7.70;;;9.10;99.90;;;;;;5127431;27;20228;-80
2023/03/09 03:05:19;;;;;;;7.90;7.70;;;9.10;99.90;;;;;;5129800;27;20268;-79
2023/03/09 03:07:49;;;;;;;8.10;7.90;;;9.10;99.90;;;;;;5133500;27;20221;-80
2023/03/09 03:10:18;;;;;;;8.00;7.80;;;9.10;99.90;;;;;;5136496;27;20613;-80
2023/03/09 03:12:49;;;;;;;7.90;7.70;;;9.10;99.90;;;;;;5134747;27;20240;-80
2023/03/09 03:15:17;;;;;;;8.00;7.80;;;9.10;99.90;;;;;;5128680;27;20335;-80
2023/03/09 03:17:47;;;;;;;7.77;7.57;;;9.10;99.90;;;;;;5127693;28;20225;-81
2023/03/09 03:20:16;;;;;;;7.93;7.73;;;9.10;99.90;;;;;;5127412;27;20263;-80
2023/03/09 03:22:45;;;;;;;8.00;7.80;;;9.10;99.90;;;;;;5127328;27;20233;-80
2023/03/09 03:25:14;;;;;;;7.87;7.67;;;9.10;99.90;;;;;;5127183;27;20336;-81
2023/03/09 03:27:45;;;;;;;7.97;7.77;;;9.20;99.90;;;;;;5126639;27;20212;-80
2023/03/09 03:30:16;;;;;;;8.00;7.80;;;9.20;99.90;;;;;;5126881;27;20252;-80
2023/03/09 03:32:44;;;;;;;8.20;8.00;;;9.20;99.90;;;;;;5126188;27;20233;-80
2023/03/09 03:35:12;;;;;;;7.93;7.73;;;9.20;99.90;;;;;;5126430;27;20268;-80
2023/03/09 03:37:42;;;;;;;7.70;7.50;;;9.30;99.90;;;;;;5126010;27;20228;-80
2023/03/09 03:40:12;;;;;;;7.93;7.73;;;9.30;99.90;;;;;;5124953;27;20235;-80
2023/03/09 03:42:41;;;;;;;7.90;7.70;;;9.30;99.90;;;;;;5141720;27;20219;-80
2023/03/09 03:45:10;;;;;;;7.97;7.77;;;9.30;99.90;;;;;;5129164;27;20284;-80
2023/03/09 03:47:43;;;;;;;7.80;7.60;;;9.30;99.90;;;;;;5145544;27;20224;-80
2023/03/09 03:50:12;;;;;;;7.70;7.50;;;9.30;99.90;;;;;;5154777;27;20224;-79
2023/03/09 03:52:40;;;;;;;7.90;7.70;;;9.30;99.90;;;;;;5154029;27;20232;-79
2023/03/09 03:55:09;;;;;;;7.67;7.47;;;9.30;99.90;;;;;;5148674;27;20235;-81
2023/03/09 03:57:37;;;;;;;7.00;6.80;;;9.30;99.90;;;;;;5147586;27;20213;-79
2023/03/09 04:00:09;;;;;;;6.97;6.77;;;9.30;99.90;;;;;;5150927;27;20238;-80
2023/03/09 04:02:40;;;;;;;7.10;6.90;;;9.30;99.90;;;;;;5150648;27;20248;-80
2023/03/09 04:05:08;;;;;;;7.40;7.20;;;9.30;99.90;;;;;;5150144;27;20571;-79
2023/03/09 04:07:37;;;;;;;7.30;7.10;;;9.30;99.90;;;;;;5149751;27;20212;-80
2023/03/09 04:10:06;;;;;;;7.20;7.00;;;9.20;99.90;;;;;;5146120;27;20241;-80
2023/03/09 04:12:36;;;;;;;7.20;7.00;;;9.30;99.90;;;;;;5129460;27;20233;-79
2023/03/09 04:15:05;;;;;;;7.20;7.00;;;9.30;99.90;;;;;;5130255;27;20209;-80
2023/03/09 04:17:34;;;;;;;7.40;7.20;;;9.30;99.90;;;;;;5129363;27;20244;-81
2023/03/09 04:20:07;;;;;;;7.30;7.10;;;9.20;99.90;;;;;;5129148;27;20331;-80
2023/03/09 04:22:34;;;;;;;7.30;7.10;;;9.20;99.90;;;;;;5129365;27;20243;-80
2023/03/09 04:25:02;;;;;;;7.23;7.03;;;9.20;99.90;;;;;;5128673;27;20223;-80
2023/03/09 04:27:32;;;;;;;7.27;7.07;;;9.20;99.90;;;;;;5129150;27;20319;-80
2023/03/09 04:30:01;;;;;;;7.20;7.00;;;9.10;99.90;;;;;;5128078;27;20311;-79
2023/03/09 04:32:31;;;;;;;7.10;6.90;;;9.10;99.90;;;;;;5129263;27;20252;-80
2023/03/09 04:35:00;;;;;;;7.10;6.90;;;9.10;99.90;;;;;;5137871;27;20217;-80
2023/03/09 04:37:34;;;;;;;7.40;7.20;;;9.10;99.90;;;;;;5142355;27;20264;-80
2023/03/09 04:40:01;;;;;;;7.10;6.90;;;9.10;99.90;;;;;;5130599;27;20339;-81
2023/03/09 04:42:29;;;;;;;7.20;7.00;;;9.10;99.90;;;;;;5130940;27;20255;-80
2023/03/09 04:44:58;;;;;;;7.30;7.10;;;9.00;99.90;;;;;;5133622;27;20229;-80
2023/03/09 04:47:28;;;;;;;7.20;7.00;;;8.90;99.90;;;;;;5133109;27;20228;-79
2023/03/09 04:49:57;;;;;;;7.20;7.00;;;8.90;99.90;;;;;;5134583;27;20229;-80
2023/03/09 04:52:26;;;;;;;7.23;7.03;;;8.90;99.90;;;;;;5144562;27;20255;-81
2023/03/09 04:55:01;;;;;;;7.20;7.00;;;8.80;99.90;;;;;;5152067;27;20328;-79
2023/03/09 04:57:29;;;;;;;7.73;7.53;;;8.80;99.90;;;;;;5151491;27;20219;-80
2023/03/09 04:59:56;;;;;;;7.77;7.57;;;8.80;99.90;;;;;;5148660;27;20232;-79
2023/03/09 05:02:25;;;;;;;8.17;7.97;;;8.80;99.90;;;;;;5145645;27;20288;-79
2023/03/09 05:04:53;;;;;;;8.00;7.80;;;8.80;99.90;;;;;;5144556;27;20285;-78
2023/03/09 05:07:21;;;;;;;7.80;7.60;;;8.80;99.90;;;;;;5144623;27;20292;-79
2023/03/09 05:09:49;;;;;;;8.07;7.87;;;8.80;99.90;;;;;;5144571;27;20244;-79
2023/03/09 05:12:18;;;;;;;8.50;8.30;;;8.70;99.90;;;;;;5145754;27;20243;-80
2023/03/09 05:14:46;;;;;;;8.70;8.50;;;8.70;99.90;;;;;;5144630;27;20285;-79
2023/03/09 05:17:13;;;;;;;8.43;8.23;;;8.70;99.90;;;;;;5144677;27;20307;-79
2023/03/09 05:19:41;;;;;;;8.20;8.00;;;8.70;99.90;;;;;;5145459;27;20262;-80
2023/03/09 05:22:09;;;;;;;8.30;8.10;;;8.70;99.90;;;;;;5145345;27;20323;-79
2023/03/09 05:24:36;;;;;;;8.57;8.37;;;8.70;99.90;;;;;;5146612;27;20223;-79
2023/03/09 05:27:04;;;;;;;8.47;8.27;;;8.70;99.90;;;;;;5145471;27;20233;-80
2023/03/09 05:29:33;;;;;;;8.60;8.40;;;8.70;99.90;;;;;;5145695;27;20228;-80
2023/03/09 05:32:00;;;;;;;8.50;8.30;;;8.70;99.90;;;;;;5146372;27;20258;-80
2023/03/09 05:34:28;;;;;;;8.40;8.20;;;8.70;99.90;;;;;;5151126;27;20289;-79
2023/03/09 05:36:56;;;;;;;8.30;8.10;;;8.80;99.90;;;;;;5152093;27;20307;-78
2023/03/09 05:39:23;;;;;;;8.30;8.10;;;8.80;99.90;;;;;;5153514;27;20239;-79
2023/03/09 05:41:51;;;;;;;8.30;8.10;;;8.80;99.90;;;;;;5152413;27;20239;-80
2023/03/09 05:44:18;;;;;;;8.20;8.00;;;8.70;99.90;;;;;;5152231;27;20239;-78
2023/03/09 05:46:48;;;;;;;8.70;8.50;;;8.70;99.90;;;;;;5152866;27;20219;-79
2023/03/09 05:49:15;;;;;;;8.73;8.53;;;8.80;99.90;;;;;;5153346;27;20288;-80
2023/03/09 05:51:43;;;;;;;8.90;8.60;;;8.70;99.90;;;;;;5153830;27;20245;-78
2023/03/09 05:54:11;;;;;;;8.53;8.33;;;8.70;99.90;;;;;;5153865;27;20224;-80
2023/03/09 05:56:38;;;;;;;8.83;8.60;;;8.70;99.90;;;;;;5153618;27;20220;-79
2023/03/09 05:59:06;;;;;;;8.70;8.50;;;8.70;99.90;;;;;;5153918;27;20248;-80
2023/03/09 06:01:34;;;;;;;8.30;8.10;;;8.70;99.90;;;;;;5151647;27;20232;-80
2023/03/09 06:04:04;;;;;;;8.53;8.33;;;8.70;99.90;;;;;;5153479;27;20273;-80
2023/03/09 06:06:33;;;;;;;8.63;8.43;;;8.70;99.90;;;;;;5153411;27;20224;-80
2023/03/09 06:09:00;;;;;;;8.40;8.20;;;8.70;99.90;;;;;;5154376;27;20224;-79
2023/03/09 06:11:28;;;;;;;8.60;8.40;;;8.60;99.90;;;;;;5154028;27;20231;-80
2023/03/09 06:13:56;;;;;;;8.50;8.30;;;8.60;99.90;;;;;;5152649;27;20309;-80
2023/03/09 06:16:26;;;;;;;7.90;7.70;;;8.60;99.90;;;;;;5153074;27;20240;-80
2023/03/09 06:18:56;;;;;;;8.40;8.20;;;8.60;99.90;;;;;;5152308;27;20293;-80
2023/03/09 06:21:26;;;;;;;8.50;8.30;;;8.70;99.90;;;;;;5148338;27;20242;-80
2023/03/09 06:23:55;;;;;;;8.53;8.33;;;8.70;99.90;;;;;;5145873;27;20243;-80
2023/03/09 06:26:24;;;;;;;8.20;8.00;;;8.60;99.90;;;;;;5144615;27;20228;-80
2023/03/09 06:28:54;;;;;;;8.00;7.80;;;8.70;99.90;;;;;;5144784;27;20231;-80
2023/03/09 06:31:22;;;;;;;8.20;8.00;;;8.70;99.90;;;;;;5144655;27;20258;-80
2023/03/09 06:33:50;;;;;;;8.30;8.10;;;8.70;99.90;;;;;;5144421;27;20332;-80
2023/03/09 06:36:19;;;;;;;8.30;8.10;;;8.70;99.90;;;;;;5144505;27;20312;-80
2023/03/09 06:38:48;;;;;;;8.43;8.23;;;8.70;99.90;;;;;;5144288;27;20220;-79
2023/03/09 06:41:27;;;;;;;8.87;8.57;;;8.70;99.90;;;;;;5144381;27;20275;-81
2023/03/09 06:43:55;;;;;;;8.40;8.20;;;8.80;99.90;;;;;;5144863;27;20239;-80
2023/03/09 06:46:23;;;;;;;8.60;8.40;;;8.80;99.90;;;;;;5144666;27;20213;-80
2023/03/09 06:48:50;;;;;;;8.50;8.30;;;8.80;99.90;;;;;;5144845;27;20267;-80
2023/03/09 06:51:18;;;;;;;8.70;8.50;;;8.80;99.90;;;;;;5145681;27;20228;-82
2023/03/09 06:53:53;;;;;;;9.00;8.70;;;8.80;99.90;;;;;;5149055;27;20212;-81
2023/03/09 06:56:20;;;;;;;8.90;8.60;;;8.80;99.90;;;;;;5147906;27;20432;-80
2023/03/09 06:58:48;;;;;;;8.53;8.33;;;8.90;99.90;;;;;;5143836;27;20220;-79
2023/03/09 07:01:17;;;;;;;8.57;8.37;;;8.90;99.90;;;;;;5135309;27;20238;-79
2023/03/09 07:03:45;;;;;;;8.60;8.40;;;8.90;99.90;;;;;;5143975;27;20319;-80
2023/03/09 07:06:13;;;;;;;8.47;8.27;;;9.00;99.90;;;;;;5138783;27;20217;-81
2023/03/09 07:08:41;;;;;;;8.53;8.33;;;9.00;99.90;;;;;;5141775;27;20315;-80
2023/03/09 07:11:10;;;;;;;8.43;8.23;;;9.10;99.90;;;;;;5142051;27;20330;-81
2023/03/09 07:13:38;;;;;;;8.70;8.50;;;9.10;99.90;;;;;;5142818;27;20288;-81
2023/03/09 07:16:07;;;;;;;9.27;8.97;;;9.10;99.90;;;;;;5141673;27;20234;-81
2023/03/09 07:18:35;;;;;;;9.67;9.37;;;9.10;99.90;;;;;;5142900;27;20296;-80
2023/03/09 07:21:04;;;;;;;9.83;9.53;;;9.10;99.90;;;;;;5141041;27;20232;-80
2023/03/09 07:23:32;;;;;;;9.73;9.43;;;9.10;99.90;;;;;;5143812;27;20332;-80
2023/03/09 07:26:01;;;;;;;10.00;9.70;;;9.10;99.90;;;;;;5139323;27;20236;-80
2023/03/09 07:28:30;;;;;;;9.83;9.53;;;9.10;99.90;;;;;;5131089;27;20236;-79
2023/03/09 07:30:58;;;;;;;9.90;9.60;;;9.20;99.90;;;;;;5145637;27;20231;-80
2023/03/09 07:33:26;;;;;;;9.90;9.60;;;9.20;99.90;;;;;;5145236;27;20320;-80
2023/03/09 07:35:53;;;;;;;10.20;9.90;;;9.20;99.90;;;;;;5144583;27;20273;-79
2023/03/09 07:38:21;;;;;;;10.00;9.70;;;9.30;99.90;;;;;;5143605;27;20310;-79
2023/03/09 07:40:48;;;;;;;10.30;10.00;;;9.30;99.90;;;;;;5146057;27;20311;-79
2023/03/09 07:43:18;;;;;;;10.10;9.80;;;9.30;99.90;;;;;;5144090;27;20265;-77
2023/03/09 07:45:47;;;;;;;10.30;10.00;;;9.40;99.90;;;;;;5145929;27;20302;-81
2023/03/09 07:48:15;;;;;;;10.10;9.80;;;9.40;99.90;;;;;;5146629;27;20322;-80
2023/03/09 07:50:43;;;;;;;10.40;10.10;;;9.30;99.90;;;;;;5146633;27;20232;-81
2023/03/09 07:53:11;;;;;;;10.07;9.77;;;9.40;99.90;;;;;;5146230;27;20221;-81
2023/03/09 07:55:39;;;;;;;10.30;10.00;;;9.40;99.90;;;;;;5145423;27;20232;-79
2023/03/09 07:58:07;;;;;;;9.80;9.50;;;9.40;99.90;;;;;;5145842;27;20256;-79
2023/03/09 08:00:34;;;;;;;9.90;9.60;;;9.40;99.90;;;;;;5147564;27;20239;-79
2023/03/09 08:03:03;;;;;;;10.00;9.70;;;9.50;99.90;;;;;;5146413;27;20232;-79
2023/03/09 08:05:32;;;;;;;10.10;9.80;;;9.50;99.90;;;;;;5147528;27;20311;-77
2023/03/09 08:07:59;;;;;;;9.70;9.40;;;9.60;99.90;;;;;;5151108;27;20235;-80
2023/03/09 08:10:29;;;;;;;9.70;9.40;;;9.60;99.90;;;;;;5146948;27;20227;-80
2023/03/09 08:12:57;;;;;;;10.40;10.10;;;9.70;99.90;;;;;;5146448;27;20239;-79
2023/03/09 08:15:25;;;;;;;10.27;9.97;;;9.70;99.90;;;;;;5146892;27;20345;-79
2023/03/09 08:17:52;;;;;;;10.30;10.00;;;9.80;99.90;;;;;;5147457;27;20315;-79
2023/03/09 08:20:23;;;;;;;10.50;10.20;;;9.70;99.90;;;;;;5150711;27;20252;-81
2023/03/09 08:22:51;;;;;;;10.30;10.00;;;9.70;99.90;;;;;;5147961;27;20800;-81
2023/03/09 08:25:20;;;;;;;9.90;9.60;;;9.60;99.90;;;;;;5146315;27;20224;-81
2023/03/09 08:27:48;;;;;;;9.73;9.43;;;9.50;99.90;;;;;;5146051;27;20248;-81
2023/03/09 08:30:20;;;;;;;9.80;9.50;;;9.50;99.90;;;;;;5147111;27;20270;-80
2023/03/09 08:32:48;;;;;;;9.47;9.17;;;9.40;99.90;;;;;;5145060;27;20263;-80
2023/03/09 08:35:16;;;;;;;9.60;9.30;;;9.40;99.90;;;;;;5145064;27;20220;-79
2023/03/09 08:37:45;;;;;;;9.70;9.40;;;9.40;99.90;;;;;;5151982;27;20338;-80
2023/03/09 08:40:15;;;;;;;9.43;9.13;;;9.30;99.90;;;;;;5148537;27;20315;-80
2023/03/09 08:42:43;;;;;;;9.20;8.90;;;9.30;99.90;;;;;;5146815;27;20289;-80
2023/03/09 08:45:11;;;;;;;9.33;9.03;;;9.40;99.90;;;;;;5147643;27;20228;-80
2023/03/09 08:47:39;;;;;;;9.03;8.77;;;9.40;99.90;;;;;;5148673;27;20236;-82
2023/03/09 08:50:09;;;;;;;9.23;8.93;;;9.40;99.90;;;;;;5148810;27;20359;-83
2023/03/09 08:52:39;;;;;;;9.73;9.43;;;9.50;99.90;;;;;;5153438;27;20228;-82
2023/03/09 08:55:11;;;;;;;9.90;9.60;;;9.50;99.90;;;;;;5152770;27;20228;-81
2023/03/09 08:57:39;;;;;;;9.93;9.63;;;9.60;99.90;;;;;;5148928;27;20230;-82
2023/03/09 09:00:11;;;;;;;9.77;9.47;;;9.70;99.90;;;;;;5148533;27;20323;-80
2023/03/09 09:02:39;;;;;;;10.00;9.70;;;9.70;99.90;;;;;;5147276;27;20232;-79
2023/03/09 09:05:09;;;;;;;9.93;9.63;;;9.70;99.90;;;;;;5147834;27;20220;-80
2023/03/09 09:07:37;;;;;;;10.17;9.87;;;9.80;99.90;;;;;;5147659;27;20261;-80
2023/03/09 09:10:05;;;;;;;10.33;10.03;;;9.90;99.90;;;;;;5147488;27;20270;-79
2023/03/09 09:12:37;;;;;;;10.10;9.80;;;9.90;99.90;;;;;;5147976;27;20271;-81
2023/03/09 09:15:08;;;;;;;10.40;10.10;;;10.00;99.90;;;;;;5148439;27;20239;-81
2023/03/09 09:17:37;;;;;;;10.77;10.47;;;10.10;99.90;;;;;;5147563;27;20232;-80
2023/03/09 09:20:06;;;;;;;10.70;10.40;;;10.20;99.90;;;;;;5148200;27;20246;-80
2023/03/09 09:22:34;;;;;;;9.80;9.50;;;10.30;99.90;;;;;;5147389;27;20224;-80
2023/03/09 09:25:02;;;;;;;9.90;9.60;;;10.40;99.90;;;;;;5148154;27;20228;-80
2023/03/09 09:27:29;;;;;;;10.00;9.70;;;10.40;99.90;;;;;;5146707;27;20240;-80
2023/03/09 09:29:58;;;;;;;10.17;9.87;;;10.40;99.90;;;;;;5146740;27;20232;-80
2023/03/09 09:32:26;;;;;;;9.97;9.67;;;10.40;99.90;;;;;;5147510;27;20248;-80
2023/03/09 09:34:54;;;;;;;9.70;9.40;;;10.40;99.90;;;;;;5146973;27;20228;-79
2023/03/09 09:37:21;;;;;;;10.50;10.20;;;10.50;99.90;;;;;;5147673;27;20251;-80
2023/03/09 09:39:49;;;;;;;10.37;10.07;;;10.60;99.90;;;;;;5146675;27;20228;-79
2023/03/09 09:42:26;;;;;;;10.33;10.03;;;10.60;99.90;;;;;;5148348;27;20227;-79
2023/03/09 09:44:55;;;;;;;10.37;10.07;;;10.60;99.90;;;;;;5148494;27;20303;-80
2023/03/09 09:47:29;;;;;;;10.03;9.73;;;10.70;99.90;;;;;;5146968;27;20271;-81
2023/03/09 09:50:00;;;;;;;9.87;9.57;;;10.70;99.90;;;;;;5148063;27;20220;-81
2023/03/09 09:52:47;;;;;;;10.00;9.70;;;10.70;99.90;;;;;;5146934;27;20274;-80
2023/03/09 09:55:22;;;;;;;10.00;9.70;;;10.70;99.90;;;;;;5147470;27;20220;-80
2023/03/09 09:58:01;;;;;;;10.23;9.93;;;10.60;99.90;;;;;;5146161;27;20228;-80
2023/03/09 10:00:36;;;;;;;10.07;9.77;;;10.60;99.90;;;;;;5145553;27;20246;-81
2023/03/09 10:03:19;;;;;;;9.83;9.53;;;10.70;99.90;;;;;;5145966;27;20235;-80
2023/03/09 10:05:52;;;;;;;10.30;10.00;;;10.70;99.90;;;;;;5146841;27;20323;-81
2023/03/09 10:08:48;;;;;;;10.50;10.20;;;10.80;99.90;;;;;;5147061;27;20275;-80
2023/03/09 10:11:23;;;;;;;10.50;10.20;;;10.90;99.90;;;;;;5134713;27;20236;-81
2023/03/09 10:13:55;;;;;;;10.47;10.17;;;11.00;99.90;;;;;;5146718;27;20724;-81
2023/03/09 10:16:27;;;;;;;10.13;9.83;;;11.00;99.90;;;;;;5146263;27;20212;-81
2023/03/09 10:19:01;;;;;;;10.60;10.30;;;11.00;99.90;;;;;;5146333;27;20227;-81
2023/03/09 10:21:36;;;;;;;10.20;9.90;;;11.00;99.90;;;;;;5146055;27;20235;-81
2023/03/09 10:24:21;;;;;;;10.40;10.10;;;11.00;99.90;;;;;;5146236;27;20228;-81
2023/03/09 10:26:57;;;;;;;10.53;10.23;;;10.90;99.90;;;;;;5147199;27;20224;-80
2023/03/09 10:29:40;;;;;;;10.37;10.07;;;10.90;99.90;;;;;;5142743;27;20232;-80
2023/03/09 10:32:19;;;;;;;10.43;10.13;;;10.80;99.90;;;;;;5143264;27;20228;-81
2023/03/09 10:34:59;;;;;;;10.33;10.03;;;10.70;99.90;;;;;;5142472;27;20224;-81
2023/03/09 10:37:34;;;;;;;10.07;9.77;;;10.60;99.90;;;;;;5146326;27;20227;-81
2023/03/09 10:40:07;;;;;;;9.97;9.67;;;10.50;99.90;;;;;;5144986;27;20227;-81
2023/03/09 10:42:38;;;;;;;9.87;9.57;;;10.40;99.90;;;;;;5143588;27;20232;-80
2023/03/09 10:45:34;;;;;;;9.70;9.40;;;10.40;99.90;;;;;;5149672;27;20275;-80
2023/03/09 10:48:06;;;;;;;9.70;9.40;;;10.40;99.90;;;;;;5146016;27;20229;-81
2023/03/09 10:50:37;;;;;;;9.47;9.17;;;10.40;99.90;;;;;;5147191;27;20262;-80
2023/03/09 10:53:32;;;;;;;9.80;9.50;;;10.40;99.90;;;;;;5145327;27;20283;-81
2023/03/09 10:56:12;;;;;;;10.03;9.73;;;10.40;99.90;;;;;;5144913;27;20235;-81
2023/03/09 10:58:40;;;;;;;10.00;9.70;;;10.50;99.90;;;;;;5144316;27;20271;-81
2023/03/09 11:01:28;;;;;;;10.40;10.10;;;10.50;99.90;;;;;;5147799;27;20232;-82
2023/03/09 11:03:57;;;;;;;10.40;10.10;;;10.60;99.90;;;;;;5150195;27;20228;-82
2023/03/09 11:06:34;;;;;;;10.67;10.37;;;10.60;99.90;;;;;;5148215;27;20323;-81
2023/03/09 11:09:12;;;;;;;10.43;10.13;;;10.70;99.90;;;;;;5150149;27;20232;-82
2023/03/09 11:11:42;;;;;;;10.47;10.17;;;10.70;99.90;;;;;;5149059;27;20266;-82
2023/03/09 11:14:33;;;;;;;10.70;10.40;;;10.70;99.90;;;;;;5150286;27;20231;-82
2023/03/09 11:17:01;;;;;;;10.70;10.40;;;10.70;99.90;;;;;;5147508;27;20283;-82
2023/03/09 11:19:30;;;;;;;11.00;10.70;;;10.80;99.90;;;;;;5150462;27;20226;-82
2023/03/09 11:22:07;;;;;;;10.27;9.97;;;10.80;99.90;;;;;;5150275;27;20236;-81
2023/03/09 11:24:44;;;;;;;10.50;10.20;;;10.80;99.90;;;;;;5150854;27;20901;-82
2023/03/09 11:27:24;;;;;;;10.27;9.97;;;10.80;99.90;;;;;;5149702;27;20231;-82
2023/03/09 11:30:01;;;;;;;10.00;9.70;;;10.80;99.90;;;;;;5149376;27;20219;-81
2023/03/09 11:32:32;;;;;;;10.40;10.10;;;10.90;99.90;;;;;;5150080;27;20236;-82
2023/03/09 11:35:02;;;;;;;10.33;10.03;;;10.90;99.90;;;;;;5149821;27;20250;-82
2023/03/09 11:37:39;;;;;;;10.90;10.60;;;10.90;99.90;;;;;;5148950;27;20220;-82
2023/03/09 11:40:16;;;;;;;10.70;10.40;;;11.00;99.90;;;;;;5147737;27;20240;-82
2023/03/09 11:42:54;;;;;;;10.50;10.20;;;11.10;99.90;;;;;;5149594;27;20250;-82
2023/03/09 11:45:28;;;;;;;10.50;10.20;;;11.40;99.90;;;;;;5146012;27;20257;-82
2023/03/09 11:48:01;;;;;;;10.70;10.40;;;11.60;99.90;;;;;;5147845;27;20258;-82
2023/03/09 11:50:40;;;;;;;10.90;10.60;;;11.80;99.90;;;;;;5148497;27;20220;-82
2023/03/09 11:53:21;;;;;;;10.60;10.30;;;11.90;99.90;;;;;;5132232;27;20258;-82
2023/03/09 11:55:57;;;;;;;10.90;10.60;;;12.00;99.90;;;;;;5149674;27;20266;-82
2023/03/09 11:58:35;;;;;;;10.60;10.30;;;12.00;99.90;;;;;;5149084;27;20322;-82
2023/03/09 12:01:27;;;;;;;10.53;10.23;;;11.90;99.90;;;;;;5149464;27;20224;-82
2023/03/09 12:04:02;;;;;;;10.30;10.00;;;11.80;99.90;;;;;;5149901;27;20228;-82
2023/03/09 12:06:43;;;;;;;10.23;9.93;;;11.80;99.90;;;;;;5150010;27;20232;-82
2023/03/09 12:09:27;;;;;;;10.50;10.20;;;11.70;99.90;;;;;;5148834;27;20308;-82
2023/03/09 12:11:59;;;;;;;10.30;10.00;;;11.70;99.90;;;;;;5148000;27;20318;-82
2023/03/09 12:14:35;;;;;;;10.70;10.40;;;11.70;99.90;;;;;;5151367;27;20232;-81
2023/03/09 12:17:14;;;;;;;10.40;10.10;;;11.70;99.90;;;;;;5153494;27;20238;-82
2023/03/09 12:19:51;;;;;;;10.30;10.00;;;11.70;99.90;;;;;;5153114;27;20333;-82
2023/03/09 12:22:30;;;;;;;10.40;10.10;;;11.80;99.90;;;;;;5152615;27;20216;-83
2023/03/09 12:25:07;;;;;;;10.57;10.27;;;11.80;99.90;;;;;;5157117;27;20238;-82
2023/03/09 12:27:38;;;;;;;10.17;9.87;;;11.80;99.90;;;;;;5163411;27;20255;-83
2023/03/09 12:30:25;;;;;;;10.30;10.00;;;11.80;99.90;;;;;;5163019;27;20243;-83
2023/03/09 12:32:56;;;;;;;10.50;10.20;;;11.70;99.90;;;;;;5157146;27;20231;-83
2023/03/09 12:35:59;;;;;;;10.53;10.23;;;11.70;99.90;;;;;;5135560;27;20232;-82
2023/03/09 12:38:29;;;;;;;10.70;10.40;;;11.70;99.90;;;;;;5131042;28;20228;-82
2023/03/09 12:41:09;;;;;;;10.57;10.27;;;11.70;99.90;;;;;;5131243;27;20272;-82
2023/03/09 12:43:55;;;;;;;10.70;10.40;;;11.70;99.90;;;;;;5130999;27;20216;-82
2023/03/09 12:47:00;;;;;;;10.67;10.37;;;11.60;99.90;;;;;;5130702;27;20233;-83
2023/03/09 12:49:36;;;;;;;10.50;10.20;;;11.60;99.90;;;;;;5130168;27;20240;-83
2023/03/09 12:52:35;;;;;;;10.60;10.30;;;11.60;99.90;;;;;;5130061;27;20275;-83
2023/03/09 12:55:19;;;;;;;11.40;11.00;;;11.70;99.90;;;;;;5132870;27;20217;-83
2023/03/09 12:58:32;;;;;;;10.73;10.43;;;11.70;99.90;;;;;;5146580;27;20234;-82
2023/03/09 13:01:04;;;;;;;10.90;10.60;;;11.70;99.90;;;;;;5152803;27;20242;-81
2023/03/09 13:03:43;;;;;;;10.40;10.10;;;11.80;99.90;;;;;;5153018;27;20234;-81
2023/03/09 13:06:36;;;;;;;10.57;10.27;;;11.80;99.90;;;;;;5140555;27;20231;-81
2023/03/09 13:09:06;;;;;;;10.40;10.10;;;11.90;99.90;;;;;;5134267;27;20317;-81
2023/03/09 13:11:40;;;;;;;10.70;10.40;;;11.90;99.90;;;;;;5143613;27;20265;-85